Terminal Aerodrome Forecast
Issued by NWS Sterling, VA

Current Version | Previous Version | Graphics & Text | Print | Product List | Glossary On
Versions: 1 2 3 4 5 6 7 8 9 10 11 12 13 14 15 16 17 18 19 20 21 22 23 24 25 26 27
383
FTUS41 KLWX 291510 AAA
TAFIAD
TAF AMD
KIAD 291510Z 2915/3018 22006KT P6SM BKN150
     FM292200 16005KT P6SM -SHRA BKN035 OVC090
     FM300100 VRB04KT 4SM SHRA OVC035
     FM300500 VRB03KT 5SM -SHRA OVC015
     FM301400 30004KT P6SM -SHRA BKN060=

USA.gov is the U.S. government's official web portal to all federal, state and local government web resources and services.